createdAt,value
2022-11-24T00:04:26.573Z,15.15
2022-11-24T00:09:28.043Z,11.80
2022-11-24T00:14:29.461Z,12.80
2022-11-24T00:19:30.899Z,14.87
2022-11-24T00:24:32.748Z,10.90
2022-11-24T00:29:34.357Z,8.57
2022-11-24T00:34:36.105Z,11.18
2022-11-24T00:39:37.677Z,10.77
2022-11-24T00:44:39.106Z,12.73
2022-11-24T00:49:40.532Z,15.83
2022-11-24T00:54:41.975Z,12.67
2022-11-24T00:59:43.407Z,14.83
2022-11-24T01:04:44.842Z,14.37
2022-11-24T01:09:46.267Z,16.87
2022-11-24T01:14:47.714Z,14.10
2022-11-24T01:19:49.217Z,16.03
2022-11-24T01:24:50.656Z,15.50
2022-11-24T01:29:52.077Z,15.80
2022-11-24T01:34:53.623Z,11.20
2022-11-24T01:39:55.169Z,15.57
2022-11-24T01:45:37.000Z,11.73
2022-11-24T01:50:38.901Z,10.95
2022-11-24T01:55:41.155Z,12.00
2022-11-24T02:00:44.672Z,15.03
2022-11-24T02:05:48.205Z,14.38
2022-11-24T02:10:49.689Z,17.37
2022-11-24T02:15:52.917Z,14.50
2022-11-24T02:20:55.535Z,15.57
2022-11-24T02:26:16.299Z,11.87
2022-11-24T02:31:18.059Z,15.63
2022-11-24T02:36:19.534Z,12.23
2022-11-24T02:41:25.399Z,12.43
2022-11-24T02:46:27.001Z,13.47
2022-11-24T02:51:29.552Z,16.10
2022-11-24T02:56:30.997Z,14.73
2022-11-24T03:01:32.488Z,17.52
2022-11-24T03:06:33.972Z,17.92
2022-11-24T03:11:35.508Z,13.48
2022-11-24T03:16:37.056Z,13.77
2022-11-24T03:21:38.522Z,14.70
2022-11-24T03:26:40.229Z,18.27
2022-11-24T03:31:41.852Z,15.50
2022-11-24T03:36:43.411Z,14.55
2022-11-24T03:41:44.867Z,16.10
2022-11-24T03:46:46.361Z,20.48
2022-11-24T03:51:47.825Z,15.97
2022-11-24T03:56:49.449Z,17.08
2022-11-24T04:01:51.071Z,14.57
2022-11-24T04:06:52.531Z,18.85
2022-11-24T04:12:12.505Z,17.60
2022-11-24T04:17:13.943Z,17.20
2022-11-24T04:22:15.383Z,17.30
2022-11-24T04:27:16.852Z,19.83
2022-11-24T04:32:18.370Z,19.08
2022-11-24T04:37:19.859Z,21.65
2022-11-24T04:42:21.579Z,21.63
2022-11-24T04:47:24.885Z,20.83
2022-11-24T04:52:26.589Z,19.33
2022-11-24T04:57:28.118Z,24.98
2022-11-24T05:02:29.594Z,22.45
2022-11-24T05:07:31.118Z,18.75
2022-11-24T05:12:33.489Z,17.42
2022-11-24T05:17:38.207Z,20.63
2022-11-24T05:22:39.654Z,22.38
2022-11-24T05:27:41.362Z,25.13
2022-11-24T05:32:42.786Z,22.85
2022-11-24T05:37:44.854Z,22.77
2022-11-24T05:42:48.119Z,24.10
2022-11-24T05:47:51.392Z,27.80
2022-11-24T05:52:52.828Z,28.77
2022-11-24T05:58:01.719Z,27.58
2022-11-24T06:03:03.463Z,26.08
2022-11-24T06:08:05.416Z,28.45
2022-11-24T06:13:07.842Z,24.58
2022-11-24T06:18:09.375Z,24.85
2022-11-24T06:23:10.879Z,23.70
2022-11-24T06:28:12.355Z,30.63
2022-11-24T06:33:14.364Z,21.63
2022-11-24T06:38:20.113Z,27.45
2022-11-24T06:43:27.778Z,28.75
2022-11-24T06:48:30.064Z,28.83
2022-11-24T06:53:33.044Z,21.25
2022-11-24T06:58:35.129Z,25.13
2022-11-24T07:03:36.660Z,25.65
2022-11-24T07:08:38.203Z,27.65
2022-11-24T07:13:39.760Z,30.05
2022-11-24T07:18:42.378Z,31.60
2022-11-24T07:23:44.135Z,22.92
2022-11-24T07:28:45.922Z,25.88
2022-11-24T07:33:52.373Z,22.15
2022-11-24T07:38:53.879Z,29.70
2022-11-24T07:43:55.579Z,29.58
2022-11-24T07:48:57.130Z,33.63
2022-11-24T07:53:58.761Z,24.15
2022-11-24T07:59:00.420Z,23.38
2022-11-24T08:04:02.481Z,24.25
2022-11-24T08:09:04.072Z,23.27
2022-11-24T08:14:05.519Z,21.83
2022-11-24T08:19:07.038Z,23.90
2022-11-24T08:24:08.786Z,28.80
2022-11-24T08:29:10.501Z,28.65
2022-11-24T08:34:11.928Z,23.08
2022-11-24T08:39:13.436Z,25.67
2022-11-24T08:44:17.456Z,25.02
2022-11-24T08:49:19.009Z,26.73
2022-11-24T08:54:25.596Z,24.95
2022-11-24T08:59:27.128Z,28.50
2022-11-24T09:04:28.664Z,30.13
2022-11-24T09:09:30.173Z,26.35
2022-11-24T09:14:31.823Z,25.80
2022-11-24T09:19:33.699Z,26.17
2022-11-24T09:24:35.338Z,24.98
2022-11-24T09:29:36.965Z,31.30
2022-11-24T09:34:38.535Z,27.08
2022-11-24T09:39:40.047Z,25.23
2022-11-24T09:45:02.968Z,23.95
2022-11-24T09:50:11.161Z,21.83
2022-11-24T09:55:28.240Z,20.70
2022-11-24T10:00:30.073Z,26.23
2022-11-24T10:05:36.062Z,27.70
2022-11-24T10:10:53.542Z,19.17
2022-11-24T10:16:06.985Z,29.35
2022-11-24T10:21:37.482Z,25.87
2022-11-24T10:26:46.937Z,23.15
2022-11-24T10:31:53.692Z,31.60
2022-11-24T10:37:22.801Z,25.02
2022-11-24T10:42:36.910Z,30.83
2022-11-24T10:47:39.074Z,24.50
2022-11-24T10:52:44.928Z,39.33
2022-11-24T10:57:46.455Z,19.15
2022-11-24T11:02:49.484Z,18.13
2022-11-24T11:07:51.065Z,26.08
2022-11-24T11:12:52.610Z,23.73
2022-11-24T11:17:58.088Z,26.40
2022-11-24T11:23:13.264Z,22.67
2022-11-24T11:28:21.680Z,20.80
2022-11-24T11:38:52.830Z,23.20
2022-11-24T11:44:08.861Z,18.65
2022-11-24T11:49:13.252Z,20.75
2022-11-24T11:54:39.211Z,29.85
2022-11-24T12:00:05.003Z,34.22
2022-11-24T12:05:19.941Z,23.52
2022-11-24T12:10:36.095Z,25.48
2022-11-24T12:20:52.826Z,23.38
2022-11-24T12:26:04.014Z,17.58
2022-11-24T12:31:07.007Z,20.33
2022-11-24T12:36:26.800Z,24.00
2022-11-24T12:41:42.524Z,26.55
2022-11-24T12:47:09.342Z,18.52
2022-11-24T12:52:37.444Z,24.17
2022-11-24T12:57:54.749Z,20.98
2022-11-24T13:03:27.020Z,17.02
2022-11-24T13:08:30.916Z,18.55
2022-11-24T13:14:10.667Z,15.90
2022-11-24T13:19:19.629Z,22.85
2022-11-24T13:24:24.837Z,25.15
2022-11-24T13:29:37.542Z,18.90
2022-11-24T13:34:39.067Z,23.02
2022-11-24T13:40:12.121Z,21.70
2022-11-24T13:45:50.594Z,22.48
2022-11-24T13:50:53.212Z,23.20
2022-11-24T13:55:59.257Z,23.50
2022-11-24T14:01:03.719Z,18.13
2022-11-24T14:06:05.957Z,17.75
2022-11-24T14:11:17.096Z,28.15
2022-11-24T14:16:21.261Z,31.30
2022-11-24T14:21:30.032Z,27.48
2022-11-24T14:26:37.638Z,24.00
2022-11-24T14:31:39.308Z,17.50
2022-11-24T14:36:41.692Z,26.95
2022-11-24T14:41:54.508Z,22.73
2022-11-24T14:47:05.248Z,21.55
2022-11-24T14:52:14.124Z,17.00
2022-11-24T14:57:37.773Z,16.90
2022-11-24T15:02:53.396Z,23.35
2022-11-24T15:08:03.087Z,18.33
2022-11-24T15:13:16.211Z,23.10
2022-11-24T15:18:27.563Z,20.33
2022-11-24T15:23:36.541Z,19.42
2022-11-24T15:28:38.486Z,26.73
2022-11-24T15:33:41.451Z,28.98
2022-11-24T15:38:42.969Z,26.17
2022-11-24T15:43:44.438Z,26.27
2022-11-24T15:48:46.133Z,24.85
2022-11-24T15:53:54.113Z,23.35
2022-11-24T15:58:58.884Z,28.25
2022-11-24T16:04:02.517Z,28.13
2022-11-24T16:09:03.992Z,18.13
2022-11-24T16:14:05.543Z,23.20
2022-11-24T16:19:09.313Z,24.67
2022-11-24T16:24:10.898Z,19.73
2022-11-24T16:29:12.401Z,21.65
2022-11-24T16:34:15.263Z,21.02
2022-11-24T16:39:16.816Z,17.60
2022-11-24T16:44:18.239Z,23.48
2022-11-24T16:49:19.864Z,25.42
2022-11-24T16:54:21.404Z,31.33
2022-11-24T16:59:22.894Z,25.30
2022-11-24T17:04:24.403Z,25.98
2022-11-24T17:09:25.854Z,28.65
2022-11-24T17:14:27.410Z,32.72
2022-11-24T17:19:31.625Z,25.52
2022-11-24T17:24:33.377Z,31.17
2022-11-24T17:29:35.059Z,25.73
2022-11-24T17:34:36.702Z,26.95
2022-11-24T17:39:38.442Z,26.42
2022-11-24T17:44:39.949Z,26.98
2022-11-24T17:49:41.388Z,22.30
2022-11-24T17:54:56.598Z,28.67
2022-11-24T17:59:58.165Z,39.45
2022-11-24T18:04:59.754Z,35.00
2022-11-24T18:10:01.238Z,22.60
2022-11-24T18:15:02.822Z,30.33
2022-11-24T18:20:04.880Z,23.10
2022-11-24T18:25:06.978Z,35.28
2022-11-24T18:30:08.776Z,30.08
2022-11-24T18:35:10.597Z,34.78
2022-11-24T18:40:12.140Z,30.55
2022-11-24T18:45:13.679Z,38.00
2022-11-24T18:50:16.676Z,23.10
2022-11-24T18:55:18.176Z,25.40
2022-11-24T19:00:22.257Z,24.58
2022-11-24T19:05:23.780Z,32.30
2022-11-24T19:10:25.217Z,20.77
2022-11-24T19:15:26.741Z,28.88
2022-11-24T19:20:28.526Z,24.10
2022-11-24T19:25:30.064Z,32.67
2022-11-24T19:30:31.613Z,39.10
2022-11-24T19:35:33.090Z,37.00
2022-11-24T19:40:34.705Z,29.65
2022-11-24T19:45:36.197Z,26.88
2022-11-24T19:50:37.696Z,31.75
2022-11-24T19:55:39.212Z,24.67
2022-11-24T20:00:40.701Z,28.83
2022-11-24T20:05:42.171Z,31.73
2022-11-24T20:10:44.559Z,24.92
2022-11-24T20:15:46.095Z,25.25
2022-11-24T20:20:47.600Z,25.13
2022-11-24T20:25:49.030Z,25.42
2022-11-24T20:30:50.543Z,27.88
2022-11-24T20:35:52.003Z,26.17
2022-11-24T20:40:53.442Z,29.63
2022-11-24T20:45:54.954Z,26.90
2022-11-24T20:50:57.033Z,29.67
2022-11-24T20:56:06.739Z,37.05
2022-11-24T21:01:14.381Z,39.92
2022-11-24T21:06:16.069Z,32.60
2022-11-24T21:11:19.213Z,32.45
2022-11-24T21:16:24.881Z,29.50
2022-11-24T21:21:33.875Z,30.77
2022-11-24T21:26:36.935Z,30.58
2022-11-24T21:31:38.817Z,28.27
2022-11-24T21:36:44.596Z,26.23
2022-11-24T21:41:46.185Z,29.77
2022-11-24T21:46:52.717Z,37.45
2022-11-24T21:51:57.294Z,37.05
2022-11-24T21:56:58.731Z,30.45
2022-11-24T22:02:00.385Z,42.83
2022-11-24T22:07:01.840Z,38.25
2022-11-24T22:12:03.384Z,34.88
2022-11-24T22:17:04.861Z,34.72
2022-11-24T22:22:06.385Z,31.88
2022-11-24T22:27:07.890Z,33.80
2022-11-24T22:32:09.435Z,30.55
2022-11-24T22:37:10.943Z,40.58
2022-11-24T22:42:12.432Z,29.33
2022-11-24T22:47:13.920Z,30.42
2022-11-24T22:52:15.386Z,30.65
2022-11-24T22:57:16.905Z,33.50
2022-11-24T23:02:18.399Z,26.50
2022-11-24T23:07:19.983Z,24.45
2022-11-24T23:12:21.517Z,27.92
2022-11-24T23:17:23.010Z,24.98
2022-11-24T23:22:24.545Z,23.67
2022-11-24T23:27:25.985Z,25.15
2022-11-24T23:32:27.527Z,23.23
2022-11-24T23:37:52.211Z,29.10
2022-11-24T23:42:50.413Z,25.70
2022-11-24T23:47:53.390Z,26.97
2022-11-24T23:52:54.871Z,29.30
2022-11-24T23:57:56.390Z,27.30
